sensor_id;sensor_type;location;lat;lon;timestamp;P1;durP1;ratioP1;P2;durP2;ratioP2
17441;SDS011;8838;50.144;8.176;2023-05-10T00:01:06;0.85;;;0.30;;
17441;SDS011;8838;50.144;8.176;2023-05-10T00:03:32;2.20;;;0.40;;
17441;SDS011;8838;50.144;8.176;2023-05-10T00:06:01;1.33;;;0.40;;
17441;SDS011;8838;50.144;8.176;2023-05-10T00:08:28;0.30;;;0.30;;
17441;SDS011;8838;50.144;8.176;2023-05-10T00:10:54;2.72;;;0.50;;
17441;SDS011;8838;50.144;8.176;2023-05-10T00:13:21;0.30;;;0.30;;
17441;SDS011;8838;50.144;8.176;2023-05-10T00:15:48;1.02;;;0.40;;
17441;SDS011;8838;50.144;8.176;2023-05-10T00:18:15;1.23;;;0.30;;
17441;SDS011;8838;50.144;8.176;2023-05-10T00:20:42;2.90;;;0.47;;
17441;SDS011;8838;50.144;8.176;2023-05-10T00:23:12;0.70;;;0.32;;
17441;SDS011;8838;50.144;8.176;2023-05-10T00:25:39;1.13;;;0.75;;
17441;SDS011;8838;50.144;8.176;2023-05-10T00:28:06;3.15;;;0.60;;
17441;SDS011;8838;50.144;8.176;2023-05-10T00:30:32;0.40;;;0.40;;
17441;SDS011;8838;50.144;8.176;2023-05-10T00:32:59;1.98;;;0.40;;
17441;SDS011;8838;50.144;8.176;2023-05-10T00:35:26;0.65;;;0.32;;
17441;SDS011;8838;50.144;8.176;2023-05-10T00:37:53;1.40;;;0.40;;
17441;SDS011;8838;50.144;8.176;2023-05-10T00:40:21;1.17;;;0.52;;
17441;SDS011;8838;50.144;8.176;2023-05-10T00:42:48;1.33;;;0.60;;
17441;SDS011;8838;50.144;8.176;2023-05-10T00:45:14;1.98;;;0.40;;
17441;SDS011;8838;50.144;8.176;2023-05-10T00:47:41;0.45;;;0.38;;
17441;SDS011;8838;50.144;8.176;2023-05-10T00:50:08;0.63;;;0.30;;
17441;SDS011;8838;50.144;8.176;2023-05-10T00:52:36;2.85;;;0.40;;
17441;SDS011;8838;50.144;8.176;2023-05-10T00:55:03;0.38;;;0.30;;
17441;SDS011;8838;50.144;8.176;2023-05-10T00:57:32;4.88;;;0.57;;
17441;SDS011;8838;50.144;8.176;2023-05-10T00:59:59;0.63;;;0.50;;
17441;SDS011;8838;50.144;8.176;2023-05-10T01:02:26;1.52;;;0.52;;
17441;SDS011;8838;50.144;8.176;2023-05-10T01:04:52;0.50;;;0.50;;
17441;SDS011;8838;50.144;8.176;2023-05-10T01:07:19;1.38;;;0.40;;
17441;SDS011;8838;50.144;8.176;2023-05-10T01:09:46;2.42;;;0.50;;
17441;SDS011;8838;50.144;8.176;2023-05-10T01:12:13;4.32;;;0.70;;
17441;SDS011;8838;50.144;8.176;2023-05-10T01:14:41;2.22;;;0.60;;
17441;SDS011;8838;50.144;8.176;2023-05-10T01:17:09;2.20;;;0.50;;
17441;SDS011;8838;50.144;8.176;2023-05-10T01:19:38;0.50;;;0.50;;
17441;SDS011;8838;50.144;8.176;2023-05-10T01:22:08;0.40;;;0.40;;
17441;SDS011;8838;50.144;8.176;2023-05-10T01:25:02;0.45;;;0.40;;
17441;SDS011;8838;50.144;8.176;2023-05-10T01:27:58;0.85;;;0.40;;
17441;SDS011;8838;50.144;8.176;2023-05-10T01:31:06;0.45;;;0.40;;
17441;SDS011;8838;50.144;8.176;2023-05-10T01:33:52;1.75;;;0.50;;
17441;SDS011;8838;50.144;8.176;2023-05-10T01:36:23;0.60;;;0.60;;
17441;SDS011;8838;50.144;8.176;2023-05-10T01:38:57;0.65;;;0.50;;
17441;SDS011;8838;50.144;8.176;2023-05-10T01:41:30;0.50;;;0.40;;
17441;SDS011;8838;50.144;8.176;2023-05-10T01:44:08;4.97;;;0.50;;
17441;SDS011;8838;50.144;8.176;2023-05-10T01:46:40;3.17;;;0.60;;
17441;SDS011;8838;50.144;8.176;2023-05-10T01:49:08;2.63;;;0.63;;
17441;SDS011;8838;50.144;8.176;2023-05-10T01:51:38;0.55;;;0.50;;
17441;SDS011;8838;50.144;8.176;2023-05-10T01:54:11;0.98;;;0.60;;
17441;SDS011;8838;50.144;8.176;2023-05-10T01:56:40;1.73;;;0.70;;
17441;SDS011;8838;50.144;8.176;2023-05-10T01:59:11;2.13;;;0.47;;
17441;SDS011;8838;50.144;8.176;2023-05-10T02:01:41;0.68;;;0.40;;
17441;SDS011;8838;50.144;8.176;2023-05-10T02:04:12;1.42;;;0.60;;
17441;SDS011;8838;50.144;8.176;2023-05-10T02:06:42;1.40;;;0.40;;
17441;SDS011;8838;50.144;8.176;2023-05-10T02:09:12;3.47;;;0.70;;
17441;SDS011;8838;50.144;8.176;2023-05-10T02:11:41;4.07;;;0.70;;
17441;SDS011;8838;50.144;8.176;2023-05-10T02:14:09;0.98;;;0.98;;
17441;SDS011;8838;50.144;8.176;2023-05-10T02:16:38;1.13;;;0.75;;
17441;SDS011;8838;50.144;8.176;2023-05-10T02:19:06;0.80;;;0.73;;
17441;SDS011;8838;50.144;8.176;2023-05-10T02:21:36;2.25;;;0.70;;
17441;SDS011;8838;50.144;8.176;2023-05-10T02:24:05;2.88;;;0.70;;
17441;SDS011;8838;50.144;8.176;2023-05-10T02:26:34;0.70;;;0.70;;
17441;SDS011;8838;50.144;8.176;2023-05-10T02:29:02;1.40;;;0.63;;
17441;SDS011;8838;50.144;8.176;2023-05-10T02:31:29;0.70;;;0.70;;
17441;SDS011;8838;50.144;8.176;2023-05-10T02:33:58;3.05;;;0.80;;
17441;SDS011;8838;50.144;8.176;2023-05-10T02:36:26;1.45;;;0.90;;
17441;SDS011;8838;50.144;8.176;2023-05-10T02:38:55;5.95;;;0.95;;
17441;SDS011;8838;50.144;8.176;2023-05-10T02:41:22;0.70;;;0.70;;
17441;SDS011;8838;50.144;8.176;2023-05-10T02:43:51;0.70;;;0.70;;
17441;SDS011;8838;50.144;8.176;2023-05-10T02:46:22;2.05;;;0.93;;
17441;SDS011;8838;50.144;8.176;2023-05-10T02:48:49;3.85;;;0.82;;
17441;SDS011;8838;50.144;8.176;2023-05-10T02:51:16;2.05;;;0.77;;
17441;SDS011;8838;50.144;8.176;2023-05-10T02:53:45;1.08;;;0.70;;
17441;SDS011;8838;50.144;8.176;2023-05-10T02:56:17;7.70;;;1.00;;
17441;SDS011;8838;50.144;8.176;2023-05-10T02:58:50;3.30;;;0.63;;
17441;SDS011;8838;50.144;8.176;2023-05-10T03:01:16;2.97;;;1.05;;
17441;SDS011;8838;50.144;8.176;2023-05-10T03:03:43;3.95;;;0.98;;
17441;SDS011;8838;50.144;8.176;2023-05-10T03:06:10;2.65;;;1.02;;
17441;SDS011;8838;50.144;8.176;2023-05-10T03:08:37;0.75;;;0.70;;
17441;SDS011;8838;50.144;8.176;2023-05-10T03:11:11;3.95;;;0.90;;
17441;SDS011;8838;50.144;8.176;2023-05-10T03:13:54;4.28;;;1.00;;
17441;SDS011;8838;50.144;8.176;2023-05-10T03:16:35;1.83;;;0.80;;
17441;SDS011;8838;50.144;8.176;2023-05-10T03:19:09;0.68;;;0.68;;
17441;SDS011;8838;50.144;8.176;2023-05-10T03:21:42;2.95;;;0.90;;
17441;SDS011;8838;50.144;8.176;2023-05-10T03:24:15;0.90;;;0.90;;
17441;SDS011;8838;50.144;8.176;2023-05-10T03:26:47;0.90;;;0.90;;
17441;SDS011;8838;50.144;8.176;2023-05-10T03:29:15;1.42;;;1.00;;
17441;SDS011;8838;50.144;8.176;2023-05-10T03:31:43;4.28;;;1.10;;
17441;SDS011;8838;50.144;8.176;2023-05-10T03:34:10;4.80;;;1.20;;
17441;SDS011;8838;50.144;8.176;2023-05-10T03:36:37;2.35;;;1.20;;
17441;SDS011;8838;50.144;8.176;2023-05-10T03:39:03;1.75;;;1.27;;
17441;SDS011;8838;50.144;8.176;2023-05-10T03:41:30;1.88;;;1.40;;
17441;SDS011;8838;50.144;8.176;2023-05-10T03:43:58;2.80;;;1.30;;
17441;SDS011;8838;50.144;8.176;2023-05-10T03:46:25;3.42;;;1.58;;
17441;SDS011;8838;50.144;8.176;2023-05-10T03:48:52;1.48;;;1.30;;
17441;SDS011;8838;50.144;8.176;2023-05-10T03:51:19;2.75;;;1.67;;
17441;SDS011;8838;50.144;8.176;2023-05-10T03:53:45;3.67;;;1.77;;
17441;SDS011;8838;50.144;8.176;2023-05-10T03:56:12;6.13;;;1.65;;
17441;SDS011;8838;50.144;8.176;2023-05-10T03:58:39;4.97;;;1.60;;
17441;SDS011;8838;50.144;8.176;2023-05-10T04:01:07;2.53;;;2.00;;
17441;SDS011;8838;50.144;8.176;2023-05-10T04:03:34;2.33;;;1.80;;
17441;SDS011;8838;50.144;8.176;2023-05-10T04:06:01;1.80;;;1.70;;
17441;SDS011;8838;50.144;8.176;2023-05-10T04:08:28;2.28;;;1.73;;
17441;SDS011;8838;50.144;8.176;2023-05-10T04:11:04;4.93;;;1.88;;
17441;SDS011;8838;50.144;8.176;2023-05-10T04:13:31;7.18;;;2.00;;
17441;SDS011;8838;50.144;8.176;2023-05-10T04:15:58;2.33;;;1.90;;
17441;SDS011;8838;50.144;8.176;2023-05-10T04:18:26;4.75;;;1.70;;
17441;SDS011;8838;50.144;8.176;2023-05-10T04:20:53;4.63;;;1.92;;
17441;SDS011;8838;50.144;8.176;2023-05-10T04:23:19;2.35;;;1.90;;
17441;SDS011;8838;50.144;8.176;2023-05-10T04:25:46;2.70;;;1.98;;
17441;SDS011;8838;50.144;8.176;2023-05-10T04:28:13;4.35;;;2.10;;
17441;SDS011;8838;50.144;8.176;2023-05-10T04:30:40;4.40;;;2.33;;
17441;SDS011;8838;50.144;8.176;2023-05-10T04:33:07;3.25;;;2.10;;
17441;SDS011;8838;50.144;8.176;2023-05-10T04:35:35;5.35;;;2.05;;
17441;SDS011;8838;50.144;8.176;2023-05-10T04:38:02;4.80;;;1.90;;
17441;SDS011;8838;50.144;8.176;2023-05-10T04:40:29;2.75;;;2.20;;
17441;SDS011;8838;50.144;8.176;2023-05-10T04:42:56;3.25;;;2.20;;
17441;SDS011;8838;50.144;8.176;2023-05-10T04:45:22;4.18;;;2.13;;
17441;SDS011;8838;50.144;8.176;2023-05-10T04:47:49;4.35;;;1.85;;
17441;SDS011;8838;50.144;8.176;2023-05-10T04:50:16;5.10;;;2.50;;
17441;SDS011;8838;50.144;8.176;2023-05-10T04:52:44;3.35;;;2.60;;
17441;SDS011;8838;50.144;8.176;2023-05-10T04:55:11;4.15;;;2.28;;
17441;SDS011;8838;50.144;8.176;2023-05-10T04:57:38;4.35;;;2.40;;
17441;SDS011;8838;50.144;8.176;2023-05-10T05:00:06;5.00;;;2.20;;
17441;SDS011;8838;50.144;8.176;2023-05-10T05:02:33;4.63;;;2.90;;
17441;SDS011;8838;50.144;8.176;2023-05-10T05:05:00;5.22;;;2.65;;
17441;SDS011;8838;50.144;8.176;2023-05-10T05:07:27;3.72;;;2.40;;
17441;SDS011;8838;50.144;8.176;2023-05-10T05:09:56;5.18;;;2.60;;
17441;SDS011;8838;50.144;8.176;2023-05-10T05:12:23;4.90;;;2.50;;
17441;SDS011;8838;50.144;8.176;2023-05-10T05:14:50;3.92;;;2.42;;
17441;SDS011;8838;50.144;8.176;2023-05-10T05:17:17;9.52;;;2.35;;
17441;SDS011;8838;50.144;8.176;2023-05-10T05:19:43;10.40;;;3.03;;
17441;SDS011;8838;50.144;8.176;2023-05-10T05:22:10;3.50;;;2.33;;
17441;SDS011;8838;50.144;8.176;2023-05-10T05:24:37;5.80;;;2.83;;
17441;SDS011;8838;50.144;8.176;2023-05-10T05:27:05;3.83;;;2.97;;
17441;SDS011;8838;50.144;8.176;2023-05-10T05:29:32;5.40;;;2.85;;
17441;SDS011;8838;50.144;8.176;2023-05-10T05:31:59;5.80;;;2.92;;
17441;SDS011;8838;50.144;8.176;2023-05-10T05:34:26;7.05;;;2.97;;
17441;SDS011;8838;50.144;8.176;2023-05-10T05:36:53;4.22;;;3.28;;
17441;SDS011;8838;50.144;8.176;2023-05-10T05:39:20;9.95;;;3.40;;
17441;SDS011;8838;50.144;8.176;2023-05-10T05:41:47;5.03;;;2.80;;
17441;SDS011;8838;50.144;8.176;2023-05-10T05:44:15;4.32;;;2.60;;
17441;SDS011;8838;50.144;8.176;2023-05-10T05:46:42;7.88;;;2.92;;
17441;SDS011;8838;50.144;8.176;2023-05-10T05:49:09;4.50;;;3.00;;
17441;SDS011;8838;50.144;8.176;2023-05-10T05:51:35;8.38;;;3.20;;
17441;SDS011;8838;50.144;8.176;2023-05-10T05:54:02;8.70;;;2.92;;
17441;SDS011;8838;50.144;8.176;2023-05-10T05:56:29;7.03;;;3.03;;
17441;SDS011;8838;50.144;8.176;2023-05-10T05:58:56;7.65;;;2.80;;
17441;SDS011;8838;50.144;8.176;2023-05-10T06:01:24;9.60;;;2.97;;
17441;SDS011;8838;50.144;8.176;2023-05-10T06:03:51;4.68;;;2.85;;
17441;SDS011;8838;50.144;8.176;2023-05-10T06:06:18;5.95;;;3.10;;
17441;SDS011;8838;50.144;8.176;2023-05-10T06:08:45;6.30;;;2.50;;
17441;SDS011;8838;50.144;8.176;2023-05-10T06:11:11;4.90;;;2.47;;
17441;SDS011;8838;50.144;8.176;2023-05-10T06:13:38;5.82;;;2.40;;
17441;SDS011;8838;50.144;8.176;2023-05-10T06:16:05;7.35;;;2.30;;
17441;SDS011;8838;50.144;8.176;2023-05-10T06:18:34;4.95;;;2.13;;
17441;SDS011;8838;50.144;8.176;2023-05-10T06:21:01;3.72;;;2.05;;
17441;SDS011;8838;50.144;8.176;2023-05-10T06:23:28;3.72;;;1.95;;
17441;SDS011;8838;50.144;8.176;2023-05-10T06:25:54;7.00;;;2.92;;
17441;SDS011;8838;50.144;8.176;2023-05-10T06:28:24;3.63;;;2.58;;
17441;SDS011;8838;50.144;8.176;2023-05-10T06:30:51;3.13;;;2.30;;
17441;SDS011;8838;50.144;8.176;2023-05-10T06:33:18;4.05;;;2.33;;
17441;SDS011;8838;50.144;8.176;2023-05-10T06:35:46;4.60;;;2.08;;
17441;SDS011;8838;50.144;8.176;2023-05-10T06:38:13;6.15;;;2.50;;
17441;SDS011;8838;50.144;8.176;2023-05-10T06:40:53;4.75;;;2.22;;
17441;SDS011;8838;50.144;8.176;2023-05-10T06:43:29;2.95;;;2.15;;
17441;SDS011;8838;50.144;8.176;2023-05-10T06:45:56;9.82;;;2.17;;
17441;SDS011;8838;50.144;8.176;2023-05-10T06:48:25;4.95;;;2.05;;
17441;SDS011;8838;50.144;8.176;2023-05-10T06:50:53;3.22;;;2.10;;
17441;SDS011;8838;50.144;8.176;2023-05-10T06:53:20;2.35;;;1.95;;
17441;SDS011;8838;50.144;8.176;2023-05-10T06:55:47;4.15;;;1.70;;
17441;SDS011;8838;50.144;8.176;2023-05-10T06:58:15;3.05;;;1.98;;
17441;SDS011;8838;50.144;8.176;2023-05-10T07:00:42;6.07;;;2.00;;
17441;SDS011;8838;50.144;8.176;2023-05-10T07:03:10;4.72;;;2.00;;
17441;SDS011;8838;50.144;8.176;2023-05-10T07:05:37;6.25;;;2.35;;
17441;SDS011;8838;50.144;8.176;2023-05-10T07:08:05;4.32;;;2.17;;
17441;SDS011;8838;50.144;8.176;2023-05-10T07:10:32;3.65;;;1.83;;
17441;SDS011;8838;50.144;8.176;2023-05-10T07:12:59;7.38;;;1.88;;
17441;SDS011;8838;50.144;8.176;2023-05-10T07:15:26;5.47;;;2.20;;
17441;SDS011;8838;50.144;8.176;2023-05-10T07:17:53;5.20;;;2.08;;
17441;SDS011;8838;50.144;8.176;2023-05-10T07:20:20;6.00;;;1.90;;
17441;SDS011;8838;50.144;8.176;2023-05-10T07:22:47;7.25;;;1.92;;
17441;SDS011;8838;50.144;8.176;2023-05-10T07:25:15;8.15;;;2.10;;
17441;SDS011;8838;50.144;8.176;2023-05-10T07:27:42;5.88;;;2.30;;
17441;SDS011;8838;50.144;8.176;2023-05-10T07:30:09;6.53;;;2.05;;
17441;SDS011;8838;50.144;8.176;2023-05-10T07:32:36;3.20;;;1.90;;
17441;SDS011;8838;50.144;8.176;2023-05-10T07:35:04;5.72;;;2.17;;
17441;SDS011;8838;50.144;8.176;2023-05-10T07:37:31;4.28;;;2.30;;
17441;SDS011;8838;50.144;8.176;2023-05-10T07:39:58;3.30;;;1.73;;
17441;SDS011;8838;50.144;8.176;2023-05-10T07:42:26;3.42;;;1.70;;
17441;SDS011;8838;50.144;8.176;2023-05-10T07:44:53;7.63;;;2.20;;
17441;SDS011;8838;50.144;8.176;2023-05-10T07:47:20;7.45;;;2.17;;
17441;SDS011;8838;50.144;8.176;2023-05-10T07:49:47;8.25;;;2.40;;
17441;SDS011;8838;50.144;8.176;2023-05-10T07:52:13;4.97;;;2.30;;
17441;SDS011;8838;50.144;8.176;2023-05-10T07:54:40;4.47;;;1.85;;
17441;SDS011;8838;50.144;8.176;2023-05-10T07:57:07;3.97;;;1.80;;
17441;SDS011;8838;50.144;8.176;2023-05-10T07:59:35;5.03;;;1.98;;
17441;SDS011;8838;50.144;8.176;2023-05-10T08:02:02;3.42;;;1.70;;
17441;SDS011;8838;50.144;8.176;2023-05-10T08:04:29;4.00;;;2.03;;
17441;SDS011;8838;50.144;8.176;2023-05-10T08:06:55;5.88;;;1.75;;
17441;SDS011;8838;50.144;8.176;2023-05-10T08:09:22;6.20;;;1.75;;
17441;SDS011;8838;50.144;8.176;2023-05-10T08:11:49;2.67;;;1.70;;
17441;SDS011;8838;50.144;8.176;2023-05-10T08:14:16;4.30;;;1.77;;
17441;SDS011;8838;50.144;8.176;2023-05-10T08:16:44;5.68;;;1.77;;
17441;SDS011;8838;50.144;8.176;2023-05-10T08:19:11;5.85;;;1.60;;
17441;SDS011;8838;50.144;8.176;2023-05-10T08:21:38;4.40;;;1.55;;
17441;SDS011;8838;50.144;8.176;2023-05-10T08:24:07;5.40;;;1.83;;
17441;SDS011;8838;50.144;8.176;2023-05-10T08:26:34;4.70;;;1.77;;
17441;SDS011;8838;50.144;8.176;2023-05-10T08:29:04;2.67;;;1.60;;
17441;SDS011;8838;50.144;8.176;2023-05-10T08:31:31;4.50;;;1.63;;
17441;SDS011;8838;50.144;8.176;2023-05-10T08:33:59;6.32;;;1.50;;
17441;SDS011;8838;50.144;8.176;2023-05-10T08:36:26;2.88;;;1.52;;
17441;SDS011;8838;50.144;8.176;2023-05-10T08:38:53;6.38;;;1.75;;
17441;SDS011;8838;50.144;8.176;2023-05-10T08:41:20;4.60;;;1.63;;
17441;SDS011;8838;50.144;8.176;2023-05-10T08:43:49;4.80;;;2.00;;
17441;SDS011;8838;50.144;8.176;2023-05-10T08:46:17;4.55;;;1.70;;
17441;SDS011;8838;50.144;8.176;2023-05-10T08:48:45;3.47;;;1.50;;
17441;SDS011;8838;50.144;8.176;2023-05-10T08:51:15;2.58;;;1.80;;
17441;SDS011;8838;50.144;8.176;2023-05-10T08:53:44;2.55;;;1.70;;
17441;SDS011;8838;50.144;8.176;2023-05-10T08:56:12;4.13;;;1.70;;
17441;SDS011;8838;50.144;8.176;2023-05-10T08:58:40;4.28;;;1.98;;
17441;SDS011;8838;50.144;8.176;2023-05-10T09:01:07;4.82;;;2.13;;
17441;SDS011;8838;50.144;8.176;2023-05-10T09:03:36;5.63;;;1.83;;
17441;SDS011;8838;50.144;8.176;2023-05-10T09:06:05;5.93;;;2.42;;
17441;SDS011;8838;50.144;8.176;2023-05-10T09:08:34;28.33;;;5.47;;
17441;SDS011;8838;50.144;8.176;2023-05-10T09:11:02;10.38;;;2.80;;
17441;SDS011;8838;50.144;8.176;2023-05-10T09:13:29;4.53;;;1.55;;
17441;SDS011;8838;50.144;8.176;2023-05-10T09:15:57;5.55;;;1.10;;
17441;SDS011;8838;50.144;8.176;2023-05-10T09:18:24;2.20;;;1.17;;
17441;SDS011;8838;50.144;8.176;2023-05-10T09:20:51;3.60;;;1.30;;
17441;SDS011;8838;50.144;8.176;2023-05-10T09:23:18;2.58;;;1.25;;
17441;SDS011;8838;50.144;8.176;2023-05-10T09:25:46;3.72;;;1.02;;
17441;SDS011;8838;50.144;8.176;2023-05-10T09:28:13;2.47;;;0.90;;
17441;SDS011;8838;50.144;8.176;2023-05-10T09:30:40;6.32;;;1.00;;
17441;SDS011;8838;50.144;8.176;2023-05-10T09:33:07;1.73;;;0.80;;
17441;SDS011;8838;50.144;8.176;2023-05-10T09:35:34;3.38;;;1.00;;
17441;SDS011;8838;50.144;8.176;2023-05-10T09:38:02;3.42;;;0.80;;
17441;SDS011;8838;50.144;8.176;2023-05-10T09:40:30;4.35;;;0.70;;
17441;SDS011;8838;50.144;8.176;2023-05-10T09:42:59;4.63;;;0.63;;
17441;SDS011;8838;50.144;8.176;2023-05-10T09:45:27;4.07;;;0.80;;
17441;SDS011;8838;50.144;8.176;2023-05-10T09:47:55;5.05;;;0.60;;
17441;SDS011;8838;50.144;8.176;2023-05-10T09:50:22;2.00;;;0.60;;
17441;SDS011;8838;50.144;8.176;2023-05-10T09:52:50;3.33;;;0.70;;
17441;SDS011;8838;50.144;8.176;2023-05-10T09:55:19;1.13;;;0.80;;
17441;SDS011;8838;50.144;8.176;2023-05-10T09:57:47;3.38;;;1.13;;
17441;SDS011;8838;50.144;8.176;2023-05-10T10:00:19;2.35;;;0.90;;
17441;SDS011;8838;50.144;8.176;2023-05-10T10:02:47;2.50;;;0.75;;
17441;SDS011;8838;50.144;8.176;2023-05-10T10:05:16;5.65;;;1.00;;
17441;SDS011;8838;50.144;8.176;2023-05-10T10:07:43;12.65;;;1.17;;
17441;SDS011;8838;50.144;8.176;2023-05-10T10:10:10;2.58;;;0.60;;
17441;SDS011;8838;50.144;8.176;2023-05-10T10:12:38;4.00;;;0.70;;
17441;SDS011;8838;50.144;8.176;2023-05-10T10:15:07;2.33;;;0.60;;
17441;SDS011;8838;50.144;8.176;2023-05-10T10:17:36;1.73;;;0.55;;
17441;SDS011;8838;50.144;8.176;2023-05-10T10:20:05;3.28;;;0.60;;
17441;SDS011;8838;50.144;8.176;2023-05-10T10:22:33;2.67;;;0.47;;
17441;SDS011;8838;50.144;8.176;2023-05-10T10:25:00;2.45;;;0.70;;
17441;SDS011;8838;50.144;8.176;2023-05-10T10:27:28;1.65;;;0.57;;
17441;SDS011;8838;50.144;8.176;2023-05-10T10:30:09;1.65;;;0.80;;
17441;SDS011;8838;50.144;8.176;2023-05-10T10:32:49;2.40;;;0.60;;
17441;SDS011;8838;50.144;8.176;2023-05-10T10:35:27;3.45;;;0.50;;
17441;SDS011;8838;50.144;8.176;2023-05-10T10:37:55;3.47;;;0.75;;
17441;SDS011;8838;50.144;8.176;2023-05-10T10:40:23;1.38;;;0.50;;
17441;SDS011;8838;50.144;8.176;2023-05-10T10:42:52;8.68;;;0.77;;
17441;SDS011;8838;50.144;8.176;2023-05-10T10:45:20;0.50;;;0.40;;
17441;SDS011;8838;50.144;8.176;2023-05-10T10:47:50;0.40;;;0.40;;
17441;SDS011;8838;50.144;8.176;2023-05-10T10:50:43;1.77;;;0.50;;
17441;SDS011;8838;50.144;8.176;2023-05-10T10:53:11;0.65;;;0.40;;
17441;SDS011;8838;50.144;8.176;2023-05-10T10:55:44;2.00;;;0.57;;
17441;SDS011;8838;50.144;8.176;2023-05-10T10:58:16;1.75;;;0.63;;
17441;SDS011;8838;50.144;8.176;2023-05-10T11:01:08;1.00;;;0.50;;
17441;SDS011;8838;50.144;8.176;2023-05-10T11:03:38;0.40;;;0.40;;
17441;SDS011;8838;50.144;8.176;2023-05-10T11:06:05;2.65;;;0.50;;
17441;SDS011;8838;50.144;8.176;2023-05-10T11:08:33;2.25;;;0.50;;
17441;SDS011;8838;50.144;8.176;2023-05-10T11:11:02;2.63;;;0.50;;
17441;SDS011;8838;50.144;8.176;2023-05-10T11:13:33;4.20;;;0.52;;
17441;SDS011;8838;50.144;8.176;2023-05-10T11:16:14;1.65;;;0.57;;
17441;SDS011;8838;50.144;8.176;2023-05-10T11:18:53;0.60;;;0.60;;
17441;SDS011;8838;50.144;8.176;2023-05-10T11:21:23;1.33;;;0.52;;
17441;SDS011;8838;50.144;8.176;2023-05-10T11:23:51;2.47;;;0.50;;
17441;SDS011;8838;50.144;8.176;2023-05-10T11:26:21;2.40;;;0.63;;
17441;SDS011;8838;50.144;8.176;2023-05-10T11:28:50;1.02;;;0.50;;
17441;SDS011;8838;50.144;8.176;2023-05-10T11:31:19;3.95;;;0.85;;
17441;SDS011;8838;50.144;8.176;2023-05-10T11:33:47;0.70;;;0.60;;
17441;SDS011;8838;50.144;8.176;2023-05-10T11:36:18;1.25;;;0.60;;
17441;SDS011;8838;50.144;8.176;2023-05-10T11:38:46;1.17;;;0.50;;
17441;SDS011;8838;50.144;8.176;2023-05-10T11:41:14;2.83;;;0.70;;
17441;SDS011;8838;50.144;8.176;2023-05-10T11:43:43;0.70;;;0.50;;
17441;SDS011;8838;50.144;8.176;2023-05-10T11:46:13;0.93;;;0.60;;
17441;SDS011;8838;50.144;8.176;2023-05-10T11:48:45;2.90;;;0.50;;
17441;SDS011;8838;50.144;8.176;2023-05-10T11:51:13;3.38;;;0.50;;
17441;SDS011;8838;50.144;8.176;2023-05-10T11:53:41;2.70;;;0.60;;
17441;SDS011;8838;50.144;8.176;2023-05-10T11:56:08;3.13;;;0.85;;
17441;SDS011;8838;50.144;8.176;2023-05-10T11:58:36;1.38;;;0.45;;
17441;SDS011;8838;50.144;8.176;2023-05-10T12:01:05;3.00;;;0.60;;
17441;SDS011;8838;50.144;8.176;2023-05-10T12:03:34;3.15;;;0.60;;
17441;SDS011;8838;50.144;8.176;2023-05-10T12:06:01;1.40;;;0.50;;
17441;SDS011;8838;50.144;8.176;2023-05-10T12:08:29;1.05;;;0.50;;
17441;SDS011;8838;50.144;8.176;2023-05-10T12:11:05;2.05;;;0.40;;
17441;SDS011;8838;50.144;8.176;2023-05-10T12:13:36;2.28;;;0.40;;
17441;SDS011;8838;50.144;8.176;2023-05-10T12:16:12;1.80;;;0.40;;
17441;SDS011;8838;50.144;8.176;2023-05-10T12:18:40;2.42;;;0.60;;
17441;SDS011;8838;50.144;8.176;2023-05-10T12:21:07;1.83;;;0.50;;
17441;SDS011;8838;50.144;8.176;2023-05-10T12:23:36;1.95;;;0.40;;
17441;SDS011;8838;50.144;8.176;2023-05-10T12:26:04;1.63;;;0.40;;
17441;SDS011;8838;50.144;8.176;2023-05-10T12:28:32;1.00;;;0.50;;
17441;SDS011;8838;50.144;8.176;2023-05-10T12:31:01;4.20;;;0.50;;
17441;SDS011;8838;50.144;8.176;2023-05-10T12:33:35;1.10;;;0.60;;
17441;SDS011;8838;50.144;8.176;2023-05-10T12:36:05;3.38;;;0.60;;
17441;SDS011;8838;50.144;8.176;2023-05-10T12:38:32;0.95;;;0.45;;
17441;SDS011;8838;50.144;8.176;2023-05-10T12:41:00;0.95;;;0.60;;
17441;SDS011;8838;50.144;8.176;2023-05-10T12:43:29;0.98;;;0.50;;
17441;SDS011;8838;50.144;8.176;2023-05-10T12:45:56;1.35;;;0.52;;
17441;SDS011;8838;50.144;8.176;2023-05-10T12:48:23;3.65;;;0.70;;
17441;SDS011;8838;50.144;8.176;2023-05-10T12:50:50;1.25;;;0.50;;
17441;SDS011;8838;50.144;8.176;2023-05-10T12:53:17;2.50;;;0.70;;
17441;SDS011;8838;50.144;8.176;2023-05-10T12:55:44;2.92;;;0.70;;
17441;SDS011;8838;50.144;8.176;2023-05-10T12:58:11;2.15;;;0.70;;
17441;SDS011;8838;50.144;8.176;2023-05-10T13:00:39;1.65;;;0.65;;
17441;SDS011;8838;50.144;8.176;2023-05-10T13:03:06;0.65;;;0.55;;
17441;SDS011;8838;50.144;8.176;2023-05-10T13:05:33;2.00;;;0.68;;
17441;SDS011;8838;50.144;8.176;2023-05-10T13:08:00;1.60;;;0.50;;
17441;SDS011;8838;50.144;8.176;2023-05-10T13:10:28;0.57;;;0.40;;
17441;SDS011;8838;50.144;8.176;2023-05-10T13:12:56;3.05;;;0.50;;
17441;SDS011;8838;50.144;8.176;2023-05-10T13:15:23;2.30;;;0.50;;
17441;SDS011;8838;50.144;8.176;2023-05-10T13:17:51;4.38;;;0.57;;
17441;SDS011;8838;50.144;8.176;2023-05-10T13:20:20;3.83;;;0.52;;
17441;SDS011;8838;50.144;8.176;2023-05-10T13:22:47;3.15;;;0.50;;
17441;SDS011;8838;50.144;8.176;2023-05-10T13:25:14;0.50;;;0.50;;
17441;SDS011;8838;50.144;8.176;2023-05-10T13:27:41;0.85;;;0.47;;
17441;SDS011;8838;50.144;8.176;2023-05-10T13:30:08;0.50;;;0.50;;
17441;SDS011;8838;50.144;8.176;2023-05-10T13:32:36;0.70;;;0.40;;
17441;SDS011;8838;50.144;8.176;2023-05-10T13:35:06;0.73;;;0.40;;
17441;SDS011;8838;50.144;8.176;2023-05-10T13:37:33;1.17;;;0.40;;
17441;SDS011;8838;50.144;8.176;2023-05-10T13:40:02;0.60;;;0.60;;
17441;SDS011;8838;50.144;8.176;2023-05-10T13:42:30;0.50;;;0.50;;
17441;SDS011;8838;50.144;8.176;2023-05-10T13:44:58;2.17;;;0.70;;
17441;SDS011;8838;50.144;8.176;2023-05-10T13:47:25;1.15;;;0.40;;
17441;SDS011;8838;50.144;8.176;2023-05-10T13:49:52;0.52;;;0.40;;
17441;SDS011;8838;50.144;8.176;2023-05-10T13:52:20;1.58;;;0.52;;
17441;SDS011;8838;50.144;8.176;2023-05-10T13:54:47;1.23;;;0.75;;
17441;SDS011;8838;50.144;8.176;2023-05-10T13:57:13;2.78;;;0.70;;
17441;SDS011;8838;50.144;8.176;2023-05-10T13:59:41;1.20;;;0.50;;
17441;SDS011;8838;50.144;8.176;2023-05-10T14:02:08;1.95;;;0.40;;
17441;SDS011;8838;50.144;8.176;2023-05-10T14:04:35;0.85;;;0.50;;
17441;SDS011;8838;50.144;8.176;2023-05-10T14:07:02;0.95;;;0.60;;
17441;SDS011;8838;50.144;8.176;2023-05-10T14:09:30;2.40;;;0.52;;
17441;SDS011;8838;50.144;8.176;2023-05-10T14:11:57;1.50;;;0.82;;
17441;SDS011;8838;50.144;8.176;2023-05-10T14:14:24;3.03;;;0.75;;
17441;SDS011;8838;50.144;8.176;2023-05-10T14:16:51;1.40;;;1.10;;
17441;SDS011;8838;50.144;8.176;2023-05-10T14:19:18;0.50;;;0.50;;
17441;SDS011;8838;50.144;8.176;2023-05-10T14:21:45;0.50;;;0.50;;
17441;SDS011;8838;50.144;8.176;2023-05-10T14:24:12;2.25;;;0.70;;
17441;SDS011;8838;50.144;8.176;2023-05-10T14:26:40;1.17;;;0.73;;
17441;SDS011;8838;50.144;8.176;2023-05-10T14:29:07;0.75;;;0.70;;
17441;SDS011;8838;50.144;8.176;2023-05-10T14:31:34;1.65;;;0.70;;
17441;SDS011;8838;50.144;8.176;2023-05-10T14:34:01;0.85;;;0.52;;
17441;SDS011;8838;50.144;8.176;2023-05-10T14:36:28;1.75;;;0.60;;
17441;SDS011;8838;50.144;8.176;2023-05-10T14:38:55;3.60;;;0.60;;
17441;SDS011;8838;50.144;8.176;2023-05-10T14:41:22;4.38;;;0.70;;
17441;SDS011;8838;50.144;8.176;2023-05-10T14:43:51;2.38;;;0.70;;
17441;SDS011;8838;50.144;8.176;2023-05-10T14:46:18;1.55;;;0.80;;
17441;SDS011;8838;50.144;8.176;2023-05-10T14:48:45;0.85;;;0.70;;
17441;SDS011;8838;50.144;8.176;2023-05-10T14:51:11;1.00;;;0.70;;
17441;SDS011;8838;50.144;8.176;2023-05-10T14:53:38;2.30;;;0.82;;
17441;SDS011;8838;50.144;8.176;2023-05-10T14:56:05;1.52;;;0.80;;
17441;SDS011;8838;50.144;8.176;2023-05-10T14:58:32;2.95;;;0.93;;
17441;SDS011;8838;50.144;8.176;2023-05-10T15:01:01;1.70;;;0.88;;
17441;SDS011;8838;50.144;8.176;2023-05-10T15:03:27;1.15;;;0.80;;
17441;SDS011;8838;50.144;8.176;2023-05-10T15:05:54;3.70;;;0.88;;
17441;SDS011;8838;50.144;8.176;2023-05-10T15:08:22;0.90;;;0.70;;